Data for 10/02/2008

Time Sea-Level Adjusted Pressure Absolute Pressure Temperature Relative Humidity Dew Point   
(mb) (inHg) (mb) (inHg) (C) (F) (%) (C) (F)
00:05 1021 30.15 850 25.1 16.5 61.7 32 0.1 32.1
00:10 1021 30.15 850 25.1 16.8 62.3 32 0.1 32.1
00:15 1021 30.15 850 25.1 16.9 62.4 35 1.4 34.5
00:20 1021 30.15 850 25.1 16.8 62.3 35 1.4 34.5
00:25 1021 30.15 850 25.1 16.8 62.3 33 0.7 33.2
00:30 1021 30.15 850 25.1 17 62.5 32 0.2 32.4
00:35 1021 30.15 850 25.1 16.8 62.3 33 0.4 32.7
00:40 1021 30.15 850 25.1 16.4 61.5 33 0.4 32.7
00:45 1021 30.15 850 25.1 16.5 61.8 32 0.1 32.1
00:50 1021 30.15 850 25.1 17.1 62.7 31 -0.1 31.9
00:55 1021 30.15 850 25.1 17.1 62.8 31 -0.2 31.7
01:00 1021 30.15 850 25.1 16.7 62.1 33 0.7 33.2
01:05 1021 30.15 850 25.1 16.5 61.6 34 0.6 33
01:10 1021 30.15 850 25.1 16 60.7 35 0.7 33.3
01:15 1021 30.15 850 25.1 15.9 60.5 36 1 33.9
01:20 1021 30.15 850 25.1 15.3 59.6 36 0.6 33
01:25 1021 30.15 850 25.1 15 59 38 1 33.8
01:30 1020 30.12 850 25.1 15 58.9 36 0.3 32.5
01:35 1020 30.12 850 25.1 15.2 59.3 37 0.5 32.9
01:40 1020 30.12 850 25.1 14.8 58.7 37 0.5 32.8
01:45 1020 30.12 849 25.07 14.3 57.8 39 0.6 33.1
01:50 1020 30.12 849 25.07 14 57.2 39 0.4 32.8
01:55 1020 30.12 849 25.07 14 57.1 39 0.4 32.8
02:00 1020 30.12 849 25.07 13.8 56.8 40 0.4 32.7
02:05 1020 30.12 850 25.1 13.8 56.9 40 0.4 32.8
02:10 1020 30.12 850 25.1 14 57.2 37 -0.4 31.3
02:15 1020 30.12 849 25.07 14.6 58.3 36 -0.2 31.7
02:20 1020 30.12 849 25.07 14.4 58 38 0.3 32.6
02:25 1020 30.12 849 25.07 14.3 57.7 36 -0.3 31.4
02:30 1020 30.12 849 25.07 14.7 58.5 35 -0.3 31.4
02:35 1020 30.12 849 25.07 15 58.9 34 -0.8 30.6
02:40 1020 30.12 849 25.07 15.5 59.8 33 -0.8 30.6
02:45 1020 30.12 849 25.07 15.3 59.5 34 -0.3 31.4
02:50 1020 30.12 849 25.07 14.9 58.9 34 -0.5 31.1
02:55 1020 30.12 849 25.07 15 59.1 34 -0.7 30.8
03:00 1020 30.12 849 25.07 14.7 58.4 36 -0.3 31.5
03:05 1020 30.12 849 25.07 14.4 57.9 36 -0.4 31.3
03:10 1020 30.12 849 25.07 14.2 57.6 38 0 32
03:15 1020 30.12 849 25.07 13.8 56.9 38 -0.1 31.9
03:20 1020 30.12 849 25.07 13.8 56.9 39 0 32
03:25 1020 30.12 849 25.07 13.5 56.3 40 0.2 32.4
03:30 1020 30.12 849 25.07 13.3 55.9 39 -0.2 31.6
03:35 1020 30.12 849 25.07 13.5 56.2 39 -0.1 31.8
03:40 1020 30.12 849 25.07 13.6 56.4 39 -0.1 31.8
03:45 1020 30.12 849 25.07 13.3 55.9 40 0 32.1
03:50 1020 30.12 849 25.07 13.1 55.6 40 -0.2 31.7
03:55 1020 30.12 849 25.07 13.2 55.7 38 -0.7 30.7
04:00 1020 30.12 849 25.07 13.7 56.6 38 -0.4 31.3
04:05 1020 30.12 849 25.07 13.8 56.8 36 -1.1 30.1
04:10 1020 30.12 849 25.07 14.3 57.8 35 -0.9 30.4
04:15 1020 30.12 849 25.07 14.3 57.7 36 -0.4 31.2
04:20 1020 30.12 849 25.07 13.8 56.8 38 -0.2 31.7
04:25 1020 30.12 849 25.07 13.3 56 39 -0.1 31.7
04:30 1020 30.12 849 25.07 13.2 55.7 39 -0.2 31.6
04:35 1020 30.12 849 25.07 13 55.5 39 -0.5 31
04:40 1020 30.12 849 25.07 13.1 55.6 38 -0.7 30.7
04:45 1019 30.09 849 25.07 13.3 56 39 -0.4 31.2
04:50 1019 30.09 849 25.07 13.1 55.5 40 -0 31.9
04:55 1019 30.09 849 25.07 12.7 54.9 40 -0.4 31.3
05:00 1019 30.09 849 25.07 12.8 55 40 -0.3 31.4
05:05 1019 30.09 849 25.07 12.4 54.4 42 -0.2 31.7
05:10 1019 30.09 849 25.07 12.4 54.2 41 -0.5 31
05:15 1019 30.09 849 25.07 12.6 54.7 40 -0.6 31
05:20 1019 30.09 849 25.07 12.8 55 40 -0.3 31.5
05:25 1019 30.09 849 25.07 12.6 54.7 41 -0.4 31.3
05:30 1019 30.09 848 25.04 12.8 55 40 -0.3 31.5
05:35 1019 30.09 848 25.04 12.6 54.6 41 -0.2 31.7
05:40 1019 30.09 848 25.04 12.2 54 42 -0.3 31.4
05:45 1019 30.09 848 25.04 12.6 54.7 40 -0.5 31.1
05:50 1019 30.09 848 25.04 12.7 54.9 40 -0.4 31.3
05:55 1019 30.09 848 25.04 12.5 54.5 41 -0.3 31.5
06:00 1019 30.09 848 25.04 12.3 54.1 42 -0.2 31.6
06:05 1019 30.09 848 25.04 12.3 54.1 41 -0.4 31.3
06:10 1019 30.09 848 25.04 12 53.7 42 -0.4 31.4
06:15 1019 30.09 848 25.04 12 53.5 42 -0.4 31.3
06:20 1019 30.09 848 25.04 12.2 53.9 42 -0.3 31.5
06:25 1019 30.09 848 25.04 11.6 52.9 44 -0.1 31.9
06:30 1019 30.09 848 25.04 12.2 54 40 -0.9 30.3
06:35 1019 30.09 848 25.04 12.9 55.2 40 -0.2 31.6
06:40 1019 30.09 848 25.04 12.6 54.6 42 -0 31.9
06:45 1019 30.09 848 25.04 12.1 53.9 42 -0.2 31.7
06:50 1019 30.09 848 25.04 11.9 53.4 43 -0.2 31.6
06:55 1019 30.09 848 25.04 12.2 53.9 41 -0.8 30.6
07:00 1019 30.09 848 25.04 12.6 54.7 41 -0.3 31.5
07:05 1019 30.09 848 25.04 12.3 54.2 42 -0.2 31.6
07:10 1019 30.09 848 25.04 12 53.7 43 -0.1 31.8
07:15 1019 30.09 848 25.04 11.9 53.3 45 0.3 32.6
07:20 1019 30.09 848 25.04 11.6 52.8 44 -0.1 31.9
07:25 1019 30.09 848 25.04 11.5 52.8 45 0.1 32.2
07:30 1019 30.09 848 25.04 11.5 52.7 43 -0.6 31
07:35 1019 30.09 848 25.04 11.9 53.4 42 -0.5 31.1
07:40 1019 30.09 848 25.04 12.4 54.2 42 -0.1 31.8
07:45 1019 30.09 848 25.04 12.1 53.7 45 0.6 33.1
07:50 1019 30.09 848 25.04 11.6 52.9 45 0.2 32.3
07:55 1019 30.09 848 25.04 11.7 53 45 0.3 32.6
08:00 1019 30.09 848 25.04 11.7 53 46 0.4 32.8
08:05 1019 30.09 848 25.04 11.8 53.2 44 -0.1 31.8
08:10 1019 30.09 848 25.04 11.9 53.4 45 0.5 32.9
08:15 1019 30.09 848 25.04 11.3 52.3 47 0.5 32.9
08:20 1019 30.09 848 25.04 11.2 52.2 48 0.6 33
08:25 1019 30.09 848 25.04 11.7 53 46 0.5 33
08:30 1019 30.09 848 25.04 11.8 53.3 47 0.9 33.6
08:35 1019 30.09 848 25.04 11.6 52.8 47 0.8 33.4
08:40 1019 30.09 848 25.04 11.6 52.8 45 0.1 32.2
08:45 1019 30.09 848 25.04 11.8 53.2 45 0.4 32.7
08:50 1019 30.09 848 25.04 12 53.5 43 -0.1 31.9
08:55 1019 30.09 848 25.04 12.8 55 40 -0.3 31.4
09:00 1019 30.09 848 25.04 13.5 56.2 40 0.2 32.4
09:05 1019 30.09 848 25.04 14.4 57.8 38 0.4 32.7
09:10 1019 30.09 848 25.04 15.1 59.2 38 1.1 33.9
09:15 1019 30.09 848 25.04 15.3 59.6 38 1.3 34.3
09:20 1019 30.09 848 25.04 15.4 59.6 40 1.9 35.5
09:25 1019 30.09 848 25.04 15.2 59.3 40 1.9 35.4
09:30 1019 30.09 848 25.04 15 58.9 39 1.1 33.9
09:35 1019 30.09 848 25.04 15.4 59.7 40 1.9 35.5
09:40 1019 30.09 848 25.04 15.9 60.5 36 0.8 33.4
09:45 1018 30.06 848 25.04 16 60.8 39 2.2 36
09:50 1018 30.06 848 25.04 16.4 61.6 38 2.2 36
09:55 1018 30.06 848 25.04 16.5 61.8 36 1.4 34.5
10:00 1018 30.06 848 25.04 16.9 62.3 35 1.6 34.8
10:05 1018 30.06 848 25.04 16.9 62.4 35 1.5 34.7
10:10 1018 30.06 848 25.04 17.4 63.2 36 2.1 35.8
10:15 1018 30.06 847 25.01 17.7 63.8 36 2.4 36.4
10:20 1018 30.06 847 25.01 18.3 65 33 1.8 35.2
10:25 1018 30.06 847 25.01 18.4 65.1 33 1.8 35.3
10:30 1018 30.06 847 25.01 18.6 65.5 30 0.9 33.7
10:35 1018 30.06 847 25.01 19.3 66.7 30 1.4 34.5
10:40 1018 30.06 847 25.01 20.1 68.2 28 1.3 34.3
10:45 1018 30.06 847 25.01 20.4 68.7 28 1.2 34.2
10:50 1018 30.06 847 25.01 20.2 68.3 28 1.2 34.1
10:55 1018 30.06 847 25.01 20 67.9 27 0.6 33.1
11:00 1018 30.06 847 25.01 20.5 69 27 1.1 33.9
11:05 1018 30.06 847 25.01 20.7 69.2 27 1 33.8
11:10 1018 30.06 847 25.01 20.8 69.5 28 1.8 35.2
11:15 1018 30.06 847 25.01 21 69.9 28 2 35.6
11:20 1018 30.06 847 25.01 21.6 70.8 27 2 35.7
11:25 1018 30.06 847 25.01 21.6 70.9 28 2.5 36.4
11:30 1018 30.06 847 25.01 21.8 71.2 27 2.2 36
11:35 1018 30.06 847 25.01 21.9 71.4 27 2.2 36
11:40 1018 30.06 847 25.01 21.6 70.9 28 2.5 36.4
11:45 1017 30.03 847 25.01 21.2 70.2 27 1.7 35.1
11:50 1017 30.03 847 25.01 21.8 71.2 27 2.3 36.1
11:55 1017 30.03 847 25.01 21.6 70.8 27 2.2 35.9
12:00 1017 30.03 846 24.98 21.5 70.6 27 1.7 35.1
12:05 1017 30.03 846 24.98 20.9 69.6 27 1.6 34.8
12:10 1017 30.03 846 24.98 21.3 70.3 27 1.7 35
12:15 1017 30.03 846 24.98 20.8 69.5 29 2.1 35.8
12:20 1017 30.03 846 24.98 21.3 70.3 27 1.5 34.8
12:25 1017 30.03 846 24.98 21.5 70.7 27 1.7 35.1
12:30 1017 30.03 846 24.98 22 71.5 26 1.9 35.3
12:35 1017 30.03 846 24.98 21.4 70.5 28 2.1 35.8
12:40 1017 30.03 846 24.98 21.3 70.3 27 1.7 35
12:45 1017 30.03 846 24.98 22.2 72 26 1.7 35.1
12:50 1017 30.03 846 24.98 22.9 73.3 25 1.8 35.3
12:55 1017 30.03 846 24.98 22.8 73 26 2.3 36.1
13:00 1017 30.03 846 24.98 23.7 74.6 25 2.6 36.7
13:05 1016 30 846 24.98 24 75.3 24 2.3 36.1
13:10 1016 30 846 24.98 23.5 74.3 24 1.7 35.1
13:15 1016 30 846 24.98 24.2 75.6 23 1.9 35.4
13:20 1016 30 845 24.95 23.8 74.9 23 1.8 35.3
13:25 1016 30 845 24.95 24.2 75.5 24 2.4 36.3
13:30 1016 30 845 24.95 23.1 73.6 24 1.8 35.2
13:35 1016 30 845 24.95 24.3 75.7 22 1.8 35.2
13:40 1016 30 845 24.95 24.8 76.7 23 2.3 36.2
13:45 1016 30 845 24.95 24.4 75.8 24 2.5 36.5
13:50 1016 30 845 24.95 24.2 75.5 23 1.8 35.3
13:55 1016 30 845 24.95 24.4 76 22 1.7 35.1
14:00 1016 30 845 24.95 24.1 75.5 23 2.1 35.8
14:05 1016 30 845 24.95 23.9 75 24 2.2 36
14:10 1016 30 845 24.95 23.9 75 24 2.2 36
14:15 1016 30 845 24.95 24.4 75.8 23 2.2 36
14:20 1015 29.97 845 24.95 24.2 75.6 23 2.1 35.9
14:25 1015 29.97 845 24.95 24 75.2 24 2.4 36.2
14:30 1015 29.97 845 24.95 23.8 74.8 24 2.2 35.9
14:35 1015 29.97 845 24.95 23.6 74.5 26 3.1 37.5
14:40 1015 29.97 845 24.95 23.5 74.4 25 2.5 36.5
14:45 1015 29.97 845 24.95 23.1 73.5 25 2.2 36
14:50 1015 29.97 844 24.92 23.6 74.5 25 2.9 37.2
14:55 1015 29.97 844 24.92 24.5 76.1 24 2.9 37.2
15:00 1015 29.97 844 24.92 24.2 75.5 27 4.1 39.5
15:05 1015 29.97 844 24.92 23.8 74.8 25 2.6 36.7
15:10 1015 29.97 844 24.92 24.1 75.4 25 3 37.4
15:15 1015 29.97 844 24.92 24.2 75.5 22 1.5 34.6
15:20 1015 29.97 844 24.92 24.3 75.7 22 1.6 35
15:25 1015 29.97 844 24.92 24.3 75.8 23 1.9 35.4
15:30 1015 29.97 844 24.92 23.6 74.5 22 1 33.7
15:35 1015 29.97 844 24.92 23.8 74.8 22 0.7 33.3
15:40 1015 29.97 844 24.92 23.7 74.7 21 0.5 33
15:45 1014 29.94 844 24.92 23.5 74.3 21 -0.1 31.8
15:50 1014 29.94 844 24.92 23.6 74.5 21 0.3 32.5
15:55 1014 29.94 843 24.89 23.4 74.1 22 0.6 33.1
16:00 1014 29.94 844 24.92 23.5 74.3 22 0.9 33.6
16:05 1014 29.94 843 24.89 23.6 74.4 23 1.3 34.3
16:10 1014 29.94 843 24.89 23.7 74.6 23 1.3 34.4
16:15 1014 29.94 844 24.92 24 75.2 23 1.7 35
16:20 1014 29.94 843 24.89 23.8 74.8 24 2.1 35.8
16:25 1014 29.94 843 24.89 23.2 73.7 26 3 37.4
16:30 1014 29.94 843 24.89 23.5 74.2 24 1.8 35.3
16:35 1014 29.94 843 24.89 23.2 73.8 24 1.9 35.5
16:40 1014 29.94 843 24.89 23.1 73.6 25 2.1 35.8
16:45 1014 29.94 843 24.89 23.3 74 24 1.7 35
16:50 1014 29.94 843 24.89 23.1 73.6 26 2.7 36.9
16:55 1014 29.94 843 24.89 22.8 73 25 2.1 35.8
17:00 1014 29.94 843 24.89 22.9 73.2 24 1.3 34.4
17:05 1014 29.94 843 24.89 23 73.5 23 1.2 34.1
17:10 1014 29.94 843 24.89 23.1 73.5 24 1.8 35.3
17:15 1014 29.94 843 24.89 23.1 73.5 24 1.5 34.6
17:20 1014 29.94 843 24.89 23.3 73.9 23 1.2 34.1
17:25 1014 29.94 843 24.89 23.6 74.4 22 1.1 33.9
17:30 1014 29.94 843 24.89 23.4 74 23 1.4 34.6
17:35 1013 29.91 843 24.89 23.5 74.3 22 1 33.7
17:40 1013 29.91 843 24.89 23.6 74.4 23 1.6 34.9
17:45 1013 29.91 843 24.89 23.8 74.9 24 2.5 36.4
17:50 1013 29.91 843 24.89 23.7 74.6 23 1.7 35
17:55 1013 29.91 843 24.89 23.5 74.4 23 1.4 34.6
18:00 1013 29.91 842 24.86 23.4 74.1 23 1.2 34.2
18:05 1013 29.91 842 24.86 23 73.4 25 2.1 35.8
18:10 1013 29.91 842 24.86 22.8 73 24 1.6 34.8
18:15 1013 29.91 842 24.86 22.7 72.8 24 1.4 34.6
18:20 1013 29.91 842 24.86 22.3 72.2 26 2.1 35.8
18:25 1013 29.91 842 24.86 22 71.7 23 0 32
18:30 1013 29.91 842 24.86 22.5 72.5 23 0.4 32.7
18:35 1013 29.91 842 24.86 22.4 72.4 24 0.9 33.5
18:40 1013 29.91 842 24.86 22.1 71.7 25 1.2 34.1
18:45 1013 29.91 842 24.86 21.8 71.2 25 0.9 33.7
18:50 1013 29.91 842 24.86 21.6 70.8 28 2.3 36.2
18:55 1013 29.91 842 24.86 21.3 70.4 26 1.5 34.7
19:00 1013 29.91 842 24.86 21.2 70.1 25 0.8 33.4
19:05 1013 29.91 842 24.86 21.1 69.9 25 0.3 32.5
19:10 1013 29.91 842 24.86 21 69.8 25 0.3 32.5
19:15 1013 29.91 842 24.86 20.9 69.6 25 0.4 32.7
19:20 1013 29.91 842 24.86 20.6 69.1 26 0.6 33.1
19:25 1013 29.91 842 24.86 20.2 68.4 27 0.9 33.6
19:30 1013 29.91 842 24.86 19.8 67.7 27 0.4 32.8
19:35 1013 29.91 842 24.86 19.6 67.3 28 0.6 33.2
19:40 1013 29.91 842 24.86 19.7 67.4 27 0.5 32.9
19:45 1013 29.91 842 24.86 19.5 67.2 27 0.3 32.5
19:50 1013 29.91 842 24.86 19.4 66.9 30 1.5 34.8
19:55 1013 29.91 842 24.86 18.8 65.8 31 1.5 34.7
20:00 1013 29.91 842 24.86 18.6 65.4 30 0.7 33.2
20:05 1013 29.91 842 24.86 18.7 65.6 29 0.5 33
20:10 1013 29.91 842 24.86 18.9 66 28 0.2 32.4
20:15 1013 29.91 842 24.86 19.5 67.2 27 0.3 32.6
20:20 1013 29.91 842 24.86 19.6 67.3 30 1.7 35
20:25 1013 29.91 842 24.86 19.5 67.1 27 0.3 32.6
20:30 1013 29.91 842 24.86 19 66.2 29 0.8 33.5
20:35 1013 29.91 842 24.86 18.1 64.7 31 0.8 33.4
20:40 1013 29.91 842 24.86 17.6 63.7 32 1 33.9
20:45 1013 29.91 842 24.86 17.1 62.7 32 0.5 32.8
20:50 1013 29.91 842 24.86 17.4 63.2 32 0.6 33.1
20:55 1013 29.91 842 24.86 17.2 62.9 33 0.8 33.4
21:00 1013 29.91 842 24.86 16.8 62.2 33 0.6 33
21:05 1013 29.91 842 24.86 16.8 62.2 33 0.6 33.1
21:10 1013 29.91 842 24.86 16.7 62.1 33 0.6 33.2
21:15 1013 29.91 842 24.86 16.8 62.3 32 0.3 32.5
21:20 1013 29.91 842 24.86 16.9 62.4 32 0.3 32.5
21:25 1013 29.91 842 24.86 16.9 62.5 32 0.4 32.7
21:30 1013 29.91 842 24.86 16.8 62.3 32 0.2 32.3
21:35 1013 29.91 842 24.86 17 62.6 32 0.1 32.2
21:40 1013 29.91 842 24.86 16.8 62.2 32 0.3 32.5
21:45 1013 29.91 842 24.86 16.6 61.9 33 0.3 32.5
21:50 1013 29.91 842 24.86 16.4 61.6 33 0.1 32.1
21:55 1012 29.88 842 24.86 16.5 61.6 33 0.2 32.4
22:00 1012 29.88 842 24.86 16.5 61.6 33 0.3 32.5
22:05 1013 29.91 842 24.86 16.7 62 31 -0.2 31.6
22:10 1013 29.91 842 24.86 17 62.5 31 -0.2 31.7
22:15 1013 29.91 842 24.86 17.2 62.9 31 -0.1 31.8
22:20 1012 29.88 842 24.86 17.2 63 30 -0.3 31.5
22:25 1012 29.88 842 24.86 17.2 63 31 0.2 32.3
22:30 1012 29.88 842 24.86 17 62.6 32 0.4 32.8
22:35 1012 29.88 842 24.86 16.9 62.4 31 -0.1 31.7
22:40 1012 29.88 842 24.86 16.9 62.4 32 0.1 32.2
22:45 1012 29.88 842 24.86 16.8 62.3 31 -0.1 31.8
22:50 1012 29.88 842 24.86 16.9 62.5 31 -0.2 31.6
22:55 1013 29.91 842 24.86 17.2 63 32 0.6 33
23:00 1013 29.91 842 24.86 17.1 62.9 30 -0.2 31.6
23:05 1013 29.91 842 24.86 17.3 63.2 30 -0.2 31.7
23:10 1012 29.88 842 24.86 17.3 63.2 30 -0.3 31.4
23:15 1013 29.91 842 24.86 17.4 63.3 31 0.1 32.1
23:20 1012 29.88 842 24.86 17.5 63.4 30 -0.4 31.4
23:25 1012 29.88 842 24.86 17.9 64.2 28 -0.8 30.6
23:30 1012 29.88 842 24.86 18.6 65.5 29 0.1 32.2
23:35 1012 29.88 842 24.86 17.8 64.1 30 0.3 32.5
23:40 1012 29.88 842 24.86 17.5 63.5 31 0.5 32.9
23:45 1012 29.88 842 24.86 17.2 63 31 0.3 32.5
23:50 1012 29.88 842 24.86 17.7 63.8 29 -0.5 31.2
23:55 1012 29.88 841 24.83 18 64.3 29 -0.3 31.4
24:00 1012 29.88 841 24.83 18.1 64.5 28 -0.4 31.2